createdAt,value
2018-04-13T00:00:31.359Z,18.83
2018-04-13T00:02:58.268Z,21.20
2018-04-13T00:05:24.779Z,20.97
2018-04-13T00:07:51.326Z,20.20
2018-04-13T00:10:17.909Z,20.80
2018-04-13T00:12:44.419Z,20.57
2018-04-13T00:15:11.182Z,20.53
2018-04-13T00:17:38.323Z,21.17
2018-04-13T00:20:06.283Z,20.07
2018-04-13T00:22:33.722Z,21.07
2018-04-13T00:25:00.234Z,21.43
2018-04-13T00:27:26.883Z,21.23
2018-04-13T00:29:53.341Z,20.90
2018-04-13T00:32:20.590Z,22.63
2018-04-13T00:34:47.091Z,22.27
2018-04-13T00:37:14.624Z,21.13
2018-04-13T00:39:41.130Z,21.73
2018-04-13T00:42:09.582Z,22.83
2018-04-13T00:44:37.336Z,20.27
2018-04-13T00:47:03.862Z,21.10
2018-04-13T00:49:30.246Z,22.93
2018-04-13T00:51:57.556Z,23.33
2018-04-13T00:54:24.023Z,22.43
2018-04-13T00:56:50.489Z,20.50
2018-04-13T00:59:16.959Z,22.20
2018-04-13T01:01:43.406Z,23.00
2018-04-13T01:04:10.178Z,21.83
2018-04-13T01:06:37.488Z,21.53
2018-04-13T01:09:04.030Z,22.93
2018-04-13T01:11:30.554Z,23.40
2018-04-13T01:13:57.098Z,24.83
2018-04-13T01:16:23.615Z,25.60
2018-04-13T01:18:50.070Z,22.60
2018-04-13T01:21:16.559Z,23.57
2018-04-13T01:23:43.827Z,22.77
2018-04-13T01:26:10.419Z,24.43
2018-04-13T01:28:36.953Z,24.10
2018-04-13T01:31:03.907Z,25.97
2018-04-13T01:33:31.074Z,23.10
2018-04-13T01:35:57.679Z,24.33
2018-04-13T01:38:24.450Z,24.87
2018-04-13T01:40:50.946Z,27.10
2018-04-13T01:43:17.450Z,25.57
2018-04-13T01:45:43.902Z,26.00
2018-04-13T01:48:10.402Z,24.80
2018-04-13T01:50:36.935Z,25.20
2018-04-13T01:53:03.572Z,25.73
2018-04-13T01:55:31.034Z,27.60
2018-04-13T01:57:57.775Z,26.50
2018-04-13T02:00:24.586Z,24.57
2018-04-13T02:02:51.486Z,25.73
2018-04-13T02:05:18.749Z,26.80
2018-04-13T02:07:45.232Z,26.53
2018-04-13T02:10:12.083Z,26.00
2018-04-13T02:12:38.603Z,27.67
2018-04-13T02:15:06.385Z,27.47
2018-04-13T02:17:33.639Z,27.90
2018-04-13T02:20:00.138Z,27.40
2018-04-13T02:22:26.482Z,27.63
2018-04-13T02:24:52.942Z,26.03
2018-04-13T02:27:19.653Z,27.90
2018-04-13T02:29:46.290Z,27.50
2018-04-13T02:32:13.774Z,28.83
2018-04-13T02:34:40.391Z,28.60
2018-04-13T02:37:07.569Z,29.80
2018-04-13T02:39:34.331Z,30.10
2018-04-13T02:42:00.844Z,28.70
2018-04-13T02:44:27.385Z,31.77
2018-04-13T02:46:53.822Z,28.80
2018-04-13T02:49:20.276Z,30.17
2018-04-13T02:51:46.812Z,29.07
2018-04-13T02:54:13.207Z,29.70
2018-04-13T02:56:40.601Z,27.67
2018-04-13T02:59:07.087Z,30.10
2018-04-13T03:01:33.742Z,31.33
2018-04-13T03:04:01.089Z,30.97
2018-04-13T03:06:27.736Z,31.20
2018-04-13T03:08:55.024Z,29.70
2018-04-13T03:11:22.229Z,30.30
2018-04-13T03:13:49.152Z,29.50
2018-04-13T03:16:15.646Z,30.37
2018-04-13T03:18:42.114Z,29.40
2018-04-13T03:21:08.642Z,29.97
2018-04-13T03:23:35.176Z,29.13
2018-04-13T03:26:01.817Z,30.20
2018-04-13T03:28:28.550Z,30.00
2018-04-13T03:30:55.325Z,29.50
2018-04-13T03:33:21.795Z,28.63
2018-04-13T03:35:48.369Z,29.63
2018-04-13T03:38:14.910Z,31.10
2018-04-13T03:40:43.069Z,31.13
2018-04-13T03:43:09.933Z,30.37
2018-04-13T03:45:36.484Z,27.50
2018-04-13T03:50:59.708Z,29.23
2018-04-13T03:53:27.684Z,29.30
2018-04-13T03:55:54.562Z,29.03
2018-04-13T03:58:21.380Z,30.80
2018-04-13T04:00:48.554Z,29.30
2018-04-13T04:03:15.998Z,31.83
2018-04-13T04:05:42.482Z,31.23
2018-04-13T04:08:09.104Z,30.37
2018-04-13T04:10:36.988Z,30.27
2018-04-13T04:13:03.549Z,29.90
2018-04-13T04:15:31.015Z,32.37
2018-04-13T04:17:57.568Z,30.53
2018-04-13T04:20:36.070Z,31.33
2018-04-13T04:23:14.575Z,30.70
2018-04-13T04:26:02.005Z,28.90
2018-04-13T04:28:28.662Z,30.43
2018-04-13T04:30:55.178Z,29.67
2018-04-13T04:33:21.934Z,27.17
2018-04-13T04:35:48.761Z,30.07
2018-04-13T04:38:16.051Z,29.70
2018-04-13T04:40:42.731Z,30.40
2018-04-13T04:43:09.922Z,29.87
2018-04-13T04:45:36.780Z,30.67
2018-04-13T04:48:04.129Z,29.80
2018-04-13T04:50:30.655Z,31.23
2018-04-13T04:52:57.915Z,30.80
2018-04-13T04:55:24.375Z,29.73
2018-04-13T04:57:51.202Z,30.20
2018-04-13T05:00:19.402Z,28.90
2018-04-13T05:02:46.075Z,30.10
2018-04-13T05:05:12.585Z,29.77
2018-04-13T05:07:39.467Z,30.27
2018-04-13T05:10:07.022Z,28.53
2018-04-13T05:12:35.138Z,31.33
2018-04-13T05:15:01.755Z,30.40
2018-04-13T05:17:28.437Z,32.60
2018-04-13T05:19:55.260Z,30.93
2018-04-13T05:22:23.026Z,31.63
2018-04-13T05:24:49.563Z,31.10
2018-04-13T05:27:16.047Z,30.60
2018-04-13T05:29:43.600Z,29.87
2018-04-13T05:32:10.234Z,29.47
2018-04-13T05:34:36.730Z,30.10
2018-04-13T05:37:03.234Z,30.73
2018-04-13T05:39:29.664Z,29.00
2018-04-13T05:41:56.349Z,30.07
2018-04-13T05:44:22.988Z,28.73
2018-04-13T05:46:49.668Z,27.37
2018-04-13T05:49:16.938Z,30.10
2018-04-13T05:51:43.912Z,29.73
2018-04-13T05:54:11.259Z,28.10
2018-04-13T05:56:39.447Z,28.90
2018-04-13T05:59:10.182Z,28.57
2018-04-13T06:01:36.936Z,29.50
2018-04-13T06:04:03.461Z,29.17
2018-04-13T06:06:29.878Z,27.33
2018-04-13T06:08:57.363Z,26.43
2018-04-13T06:11:27.894Z,27.10
2018-04-13T06:13:54.618Z,29.00
2018-04-13T06:16:21.523Z,27.50
2018-04-13T06:18:49.612Z,27.60
2018-04-13T06:21:16.184Z,28.47
2018-04-13T06:23:42.995Z,28.53
2018-04-13T06:26:09.674Z,27.07
2018-04-13T06:28:36.250Z,27.67
2018-04-13T06:31:02.795Z,26.47
2018-04-13T06:33:30.967Z,27.40
2018-04-13T06:35:58.121Z,26.60
2018-04-13T06:38:25.402Z,27.93
2018-04-13T06:40:51.905Z,27.30
2018-04-13T06:43:19.227Z,26.43
2018-04-13T06:45:45.730Z,28.10
2018-04-13T06:48:12.608Z,26.57
2018-04-13T06:50:39.586Z,27.83
2018-04-13T06:53:07.748Z,27.00
2018-04-13T06:55:35.405Z,27.47
2018-04-13T06:58:01.903Z,27.97
2018-04-13T07:00:28.402Z,25.70
2018-04-13T07:02:56.415Z,23.97
2018-04-13T07:05:24.414Z,26.90
2018-04-13T07:07:52.222Z,25.50
2018-04-13T07:10:19.325Z,25.83
2018-04-13T07:12:47.372Z,26.47
2018-04-13T07:15:16.773Z,24.63
2018-04-13T07:17:44.145Z,26.67
2018-04-13T07:20:11.466Z,26.00
2018-04-13T07:22:39.206Z,25.20
2018-04-13T07:25:07.347Z,24.90
2018-04-13T07:27:34.660Z,25.03
2018-04-13T07:30:01.234Z,24.50
2018-04-13T07:32:28.108Z,25.73
2018-04-13T07:34:55.100Z,27.13
2018-04-13T07:37:23.703Z,25.87
2018-04-13T07:39:50.331Z,25.97
2018-04-13T07:42:17.056Z,25.27
2018-04-13T07:44:43.750Z,27.30
2018-04-13T07:47:10.531Z,26.20
2018-04-13T07:49:37.534Z,24.93
2018-04-13T07:52:04.040Z,28.60
2018-04-13T07:54:30.518Z,25.03
2018-04-13T07:56:59.610Z,24.13
2018-04-13T07:59:27.430Z,25.73
2018-04-13T08:01:54.171Z,25.10
2018-04-13T08:04:20.811Z,26.20
2018-04-13T08:06:47.410Z,25.73
2018-04-13T08:09:15.598Z,26.50
2018-04-13T08:11:42.088Z,25.27
2018-04-13T08:14:10.210Z,24.77
2018-04-13T08:16:36.985Z,25.10
2018-04-13T08:19:03.461Z,25.23
2018-04-13T08:21:30.077Z,25.07
2018-04-13T08:23:58.709Z,25.87
2018-04-13T08:26:25.420Z,27.00
2018-04-13T08:28:52.794Z,25.57
2018-04-13T08:31:19.244Z,24.13
2018-04-13T08:33:45.668Z,25.70
2018-04-13T08:36:13.698Z,25.57
2018-04-13T08:38:41.906Z,24.97
2018-04-13T08:41:08.352Z,25.30
2018-04-13T08:43:34.772Z,25.37
2018-04-13T08:46:02.060Z,25.37
2018-04-13T08:48:28.566Z,23.17
2018-04-13T08:50:55.335Z,24.47
2018-04-13T08:53:23.352Z,23.33
2018-04-13T08:55:49.910Z,23.00
2018-04-13T08:58:16.596Z,24.63
2018-04-13T09:00:43.868Z,24.00
2018-04-13T09:03:11.431Z,23.70
2018-04-13T09:05:38.164Z,24.77
2018-04-13T09:08:04.943Z,24.47
2018-04-13T09:10:31.478Z,25.20
2018-04-13T09:12:59.735Z,25.90
2018-04-13T09:15:27.470Z,25.07
2018-04-13T09:17:54.493Z,25.63
2018-04-13T09:20:21.068Z,26.60
2018-04-13T09:22:48.405Z,25.50
2018-04-13T09:25:14.844Z,26.93
2018-04-13T09:27:42.183Z,25.77
2018-04-13T09:30:11.378Z,24.10
2018-04-13T09:32:38.186Z,23.40
2018-04-13T09:35:04.813Z,24.90
2018-04-13T09:37:32.541Z,23.20
2018-04-13T09:40:00.156Z,21.10
2018-04-13T09:42:27.340Z,22.90
2018-04-13T09:44:54.029Z,21.40
2018-04-13T09:47:20.448Z,23.43
2018-04-13T09:49:47.111Z,21.13
2018-04-13T09:52:13.543Z,22.70
2018-04-13T09:54:42.027Z,23.00
2018-04-13T09:57:09.089Z,22.60
2018-04-13T09:59:36.815Z,22.53
2018-04-13T10:02:10.077Z,22.13
2018-04-13T10:04:40.307Z,22.50
2018-04-13T10:07:06.887Z,22.03
2018-04-13T10:09:34.106Z,21.57
2018-04-13T10:12:00.880Z,22.00
2018-04-13T10:14:28.316Z,20.97
2018-04-13T10:16:55.377Z,20.90
2018-04-13T10:19:22.074Z,22.30
2018-04-13T10:21:50.206Z,20.13
2018-04-13T10:24:18.706Z,23.63
2018-04-13T10:26:46.239Z,20.67
2018-04-13T10:29:14.475Z,21.60
2018-04-13T10:31:41.546Z,21.70
2018-04-13T10:34:08.155Z,22.63
2018-04-13T10:36:36.341Z,22.03
2018-04-13T10:39:04.636Z,22.13
2018-04-13T10:41:31.474Z,22.30
2018-04-13T10:43:58.221Z,21.43
2018-04-13T10:46:24.789Z,21.60
2018-04-13T10:48:52.265Z,21.67
2018-04-13T10:51:18.799Z,21.73
2018-04-13T10:53:45.199Z,21.30
2018-04-13T10:56:11.672Z,23.30
2018-04-13T10:58:38.789Z,23.07
2018-04-13T11:01:06.490Z,22.23
2018-04-13T11:03:33.735Z,22.77
2018-04-13T11:06:01.801Z,22.63
2018-04-13T11:08:28.957Z,22.60
2018-04-13T11:10:55.788Z,24.20
2018-04-13T11:13:22.403Z,23.07
2018-04-13T11:15:49.176Z,25.07
2018-04-13T11:18:16.646Z,24.63
2018-04-13T11:20:44.243Z,25.03
2018-04-13T11:23:11.284Z,22.70
2018-04-13T11:25:39.569Z,23.77
2018-04-13T11:28:06.495Z,22.90
2018-04-13T11:30:34.650Z,22.87
2018-04-13T11:33:02.960Z,23.03
2018-04-13T11:35:30.631Z,21.80
2018-04-13T11:37:57.342Z,23.63
2018-04-13T11:40:24.909Z,23.73
2018-04-13T11:42:51.778Z,25.03
2018-04-13T11:45:19.327Z,26.10
2018-04-13T11:47:46.946Z,24.87
2018-04-13T11:50:13.373Z,24.77
2018-04-13T11:52:40.082Z,25.80
2018-04-13T11:55:06.996Z,26.23
2018-04-13T11:57:34.453Z,24.17
2018-04-13T12:00:01.055Z,26.13
2018-04-13T12:02:28.035Z,25.97
2018-04-13T12:04:54.476Z,26.50
2018-04-13T12:07:20.970Z,26.77
2018-04-13T12:09:47.407Z,24.77
2018-04-13T12:12:15.388Z,25.93
2018-04-13T12:14:42.945Z,26.07
2018-04-13T12:17:10.696Z,28.97
2018-04-13T12:19:37.157Z,28.00
2018-04-13T12:22:06.249Z,26.13
2018-04-13T12:24:32.699Z,26.30
2018-04-13T12:26:59.722Z,26.60
2018-04-13T12:29:27.010Z,26.13
2018-04-13T12:31:53.540Z,26.00
2018-04-13T12:34:20.004Z,26.87
2018-04-13T12:36:46.580Z,27.37
2018-04-13T12:39:13.991Z,28.10
2018-04-13T12:41:40.450Z,26.47
2018-04-13T12:44:07.105Z,27.40
2018-04-13T12:46:36.610Z,26.50
2018-04-13T12:49:04.318Z,27.90
2018-04-13T12:51:30.879Z,26.90
2018-04-13T12:53:59.592Z,27.43
2018-04-13T12:56:27.753Z,26.87
2018-04-13T12:58:55.870Z,25.83
2018-04-13T13:01:24.266Z,27.30
2018-04-13T13:03:51.222Z,27.17
2018-04-13T13:06:17.904Z,26.13
2018-04-13T13:08:44.939Z,28.20
2018-04-13T13:11:12.563Z,27.20
2018-04-13T13:13:40.654Z,29.20
2018-04-13T13:16:08.902Z,29.13
2018-04-13T13:18:37.373Z,27.27
2018-04-13T13:21:06.592Z,25.80
2018-04-13T13:23:34.233Z,25.93
2018-04-13T13:26:02.460Z,27.90
2018-04-13T13:28:29.588Z,26.63
2018-04-13T13:30:58.094Z,27.90
2018-04-13T13:33:25.012Z,26.87
2018-04-13T13:35:53.338Z,28.27
2018-04-13T13:38:20.543Z,28.37
2018-04-13T13:40:48.693Z,26.40
2018-04-13T13:43:15.566Z,30.30
2018-04-13T13:45:43.888Z,30.93
2018-04-13T13:48:12.018Z,28.20
2018-04-13T13:50:38.896Z,29.90
2018-04-13T13:53:06.356Z,27.83
2018-04-13T13:55:32.845Z,28.40
2018-04-13T13:57:59.625Z,30.27
2018-04-13T14:00:27.055Z,29.47
2018-04-13T14:02:54.398Z,30.17
2018-04-13T14:05:23.195Z,30.90
2018-04-13T14:07:50.246Z,28.50
2018-04-13T14:10:18.913Z,30.20
2018-04-13T14:12:45.698Z,29.27
2018-04-13T14:15:13.305Z,30.23
2018-04-13T14:17:40.352Z,30.60
2018-04-13T14:20:07.092Z,29.37
2018-04-13T14:22:39.013Z,27.97
2018-04-13T14:25:08.627Z,28.63
2018-04-13T14:27:36.286Z,27.97
2018-04-13T14:30:03.753Z,30.07
2018-04-13T14:32:30.759Z,28.80
2018-04-13T14:34:58.554Z,31.73
2018-04-13T14:37:25.647Z,27.10
2018-04-13T14:39:52.755Z,29.70
2018-04-13T14:42:19.311Z,29.03
2018-04-13T14:44:46.638Z,28.47
2018-04-13T14:47:13.719Z,29.37
2018-04-13T14:49:42.178Z,29.30
2018-04-13T14:52:10.592Z,28.97
2018-04-13T14:54:37.263Z,29.33
2018-04-13T14:57:05.328Z,29.00
2018-04-13T14:59:31.940Z,28.83
2018-04-13T15:02:00.538Z,29.97
2018-04-13T15:04:27.148Z,30.40
2018-04-13T15:06:55.117Z,31.53
2018-04-13T15:09:23.185Z,30.83
2018-04-13T15:11:50.888Z,31.23
2018-04-13T15:14:17.946Z,32.53
2018-04-13T15:16:46.727Z,29.60
2018-04-13T15:19:13.168Z,28.97
2018-04-13T15:21:39.939Z,29.30
2018-04-13T15:24:06.454Z,28.40
2018-04-13T15:26:33.716Z,28.37
2018-04-13T15:29:00.509Z,28.47
2018-04-13T15:31:27.694Z,28.53
2018-04-13T15:33:58.023Z,27.80
2018-04-13T15:36:25.498Z,28.77
2018-04-13T15:38:53.804Z,28.27
2018-04-13T15:41:21.635Z,25.87
2018-04-13T15:43:49.857Z,29.97
2018-04-13T15:46:18.269Z,28.90
2018-04-13T15:48:44.844Z,28.70
2018-04-13T15:51:11.278Z,27.63
2018-04-13T15:53:39.620Z,28.43
2018-04-13T15:56:06.091Z,28.10
2018-04-13T15:58:33.127Z,25.70
2018-04-13T16:01:00.338Z,28.20
2018-04-13T16:03:28.456Z,29.07
2018-04-13T16:05:55.640Z,27.70
2018-04-13T16:08:23.616Z,29.57
2018-04-13T16:10:50.045Z,27.80
2018-04-13T16:13:16.478Z,28.90
2018-04-13T16:15:42.942Z,27.40
2018-04-13T16:18:09.450Z,27.90
2018-04-13T16:20:37.031Z,27.90
2018-04-13T16:23:03.624Z,28.60
2018-04-13T16:25:31.642Z,27.00
2018-04-13T16:27:59.026Z,28.47
2018-04-13T16:30:26.325Z,27.33
2018-04-13T16:32:54.958Z,27.97
2018-04-13T16:35:21.838Z,27.43
2018-04-13T16:37:50.140Z,28.03
2018-04-13T16:40:17.336Z,29.37
2018-04-13T16:42:44.504Z,25.70
2018-04-13T16:45:10.987Z,28.07
2018-04-13T16:47:39.064Z,26.80
2018-04-13T16:50:05.682Z,28.30
2018-04-13T16:52:32.680Z,28.50
2018-04-13T16:54:59.960Z,28.33
2018-04-13T16:57:26.954Z,27.97
2018-04-13T16:59:53.480Z,25.83
2018-04-13T17:02:20.107Z,27.30
2018-04-13T17:04:48.378Z,28.80
2018-04-13T17:07:14.868Z,27.13
2018-04-13T17:09:41.737Z,28.57
2018-04-13T17:12:09.913Z,27.60
2018-04-13T17:14:36.830Z,26.40
2018-04-13T17:17:03.390Z,26.97
2018-04-13T17:19:30.104Z,28.83
2018-04-13T17:21:56.594Z,29.00
2018-04-13T17:24:23.586Z,28.37
2018-04-13T17:26:51.754Z,29.10
2018-04-13T17:29:19.459Z,28.80
2018-04-13T17:31:46.259Z,29.37
2018-04-13T17:34:13.239Z,30.60
2018-04-13T17:36:40.265Z,32.97
2018-04-13T17:39:06.901Z,31.40
2018-04-13T17:41:34.492Z,31.20
2018-04-13T17:44:01.094Z,30.37
2018-04-13T17:46:27.621Z,30.87
2018-04-13T17:48:54.890Z,30.20
2018-04-13T17:51:21.545Z,31.93
2018-04-13T17:53:48.122Z,29.90
2018-04-13T17:56:14.617Z,29.67
2018-04-13T17:58:41.812Z,29.97
2018-04-13T18:01:08.303Z,31.53
2018-04-13T18:03:35.554Z,29.63
2018-04-13T18:06:03.030Z,32.93
2018-04-13T18:08:33.535Z,30.37
2018-04-13T18:11:00.835Z,28.60
2018-04-13T18:13:27.747Z,29.50
2018-04-13T18:15:54.255Z,28.10
2018-04-13T18:18:21.496Z,27.20
2018-04-13T18:20:47.993Z,27.20
2018-04-13T18:23:16.011Z,29.53
2018-04-13T18:25:42.367Z,28.47
2018-04-13T18:28:08.993Z,30.07
2018-04-13T18:30:37.322Z,31.37
2018-04-13T18:33:03.908Z,27.80
2018-04-13T18:35:30.439Z,30.97
2018-04-13T18:37:58.328Z,32.60
2018-04-13T18:40:26.789Z,32.20
2018-04-13T18:42:54.640Z,33.93
2018-04-13T18:45:21.437Z,32.50
2018-04-13T18:47:49.425Z,34.27
2018-04-13T18:50:17.299Z,33.37
2018-04-13T18:52:43.983Z,33.10
2018-04-13T18:55:11.130Z,33.20
2018-04-13T18:57:37.605Z,32.57
2018-04-13T19:00:04.805Z,33.87
2018-04-13T19:02:31.350Z,36.13
2018-04-13T19:04:58.284Z,32.93
2018-04-13T19:07:25.448Z,34.20
2018-04-13T19:09:52.064Z,34.10
2018-04-13T19:12:18.533Z,34.77
2018-04-13T19:14:45.083Z,34.47
2018-04-13T19:17:11.504Z,32.23
2018-04-13T19:19:38.203Z,36.20
2018-04-13T19:22:04.811Z,34.60
2018-04-13T19:24:31.383Z,32.30
2018-04-13T19:26:58.052Z,36.00
2018-04-13T19:29:25.228Z,40.30
2018-04-13T19:31:51.824Z,39.20
2018-04-13T19:34:19.044Z,39.30
2018-04-13T19:36:45.509Z,38.67
2018-04-13T19:39:13.598Z,44.00
2018-04-13T19:41:42.964Z,41.07
2018-04-13T19:44:11.365Z,42.10
2018-04-13T19:46:38.583Z,38.57
2018-04-13T19:49:05.478Z,39.90
2018-04-13T19:51:32.784Z,41.37
2018-04-13T19:53:59.366Z,38.47
2018-04-13T19:56:27.236Z,40.03
2018-04-13T19:58:54.080Z,41.47
2018-04-13T20:01:20.534Z,39.60
2018-04-13T20:03:47.074Z,38.13
2018-04-13T20:06:14.027Z,40.20
2018-04-13T20:08:43.987Z,38.03
2018-04-13T20:11:11.755Z,41.17
2018-04-13T20:13:41.212Z,42.20
2018-04-13T20:16:07.765Z,43.37
2018-04-13T20:18:34.247Z,43.53
2018-04-13T20:21:04.659Z,48.03
2018-04-13T20:23:31.905Z,46.47
2018-04-13T20:25:59.949Z,49.73
2018-04-13T20:28:27.125Z,49.30
2018-04-13T20:30:54.979Z,49.90
2018-04-13T20:33:23.429Z,49.30
2018-04-13T20:35:50.855Z,48.70
2018-04-13T20:38:17.471Z,51.70
2018-04-13T20:40:47.376Z,50.70
2018-04-13T20:43:15.843Z,48.13
2018-04-13T20:45:43.091Z,50.57
2018-04-13T20:48:09.447Z,50.93
2018-04-13T20:50:38.247Z,47.93
2018-04-13T20:53:04.721Z,51.30
2018-04-13T20:55:31.190Z,46.53
2018-04-13T20:57:57.814Z,43.27
2018-04-13T21:00:24.743Z,45.47
2018-04-13T21:02:51.296Z,41.90
2018-04-13T21:05:17.832Z,38.97
2018-04-13T21:07:44.376Z,37.77
2018-04-13T21:10:10.855Z,38.30
2018-04-13T21:12:39.203Z,42.43
2018-04-13T21:15:05.886Z,40.73
2018-04-13T21:17:32.488Z,39.17
2018-04-13T21:19:58.868Z,41.73
2018-04-13T21:22:25.306Z,42.83
2018-04-13T21:24:51.809Z,39.80
2018-04-13T21:27:18.299Z,40.57
2018-04-13T21:29:46.109Z,41.83
2018-04-13T21:32:13.749Z,42.40
2018-04-13T21:34:40.346Z,45.13
2018-04-13T21:37:07.591Z,40.63
2018-04-13T21:39:35.006Z,39.20
2018-04-13T21:42:02.445Z,37.00
2018-04-13T21:44:30.159Z,38.47
2018-04-13T21:46:57.374Z,40.47
2018-04-13T21:49:23.881Z,40.07
2018-04-13T21:51:51.131Z,40.10
2018-04-13T21:54:18.327Z,40.50
2018-04-13T21:56:44.948Z,38.30
2018-04-13T21:59:11.280Z,36.27
2018-04-13T22:01:38.122Z,38.10
2018-04-13T22:04:04.860Z,40.57
2018-04-13T22:06:32.828Z,41.10
2018-04-13T22:08:59.349Z,40.87
2018-04-13T22:11:26.004Z,39.03
2018-04-13T22:14:04.619Z,40.40
2018-04-13T22:16:31.819Z,40.57
2018-04-13T22:18:58.837Z,42.37
2018-04-13T22:21:25.637Z,41.63
2018-04-13T22:23:53.068Z,42.50
2018-04-13T22:26:19.940Z,41.07
2018-04-13T22:28:46.539Z,42.20
2018-04-13T22:31:14.100Z,41.07
2018-04-13T22:33:41.219Z,41.70
2018-04-13T22:36:10.387Z,41.70
2018-04-13T22:38:37.758Z,39.20
2018-04-13T22:41:04.439Z,39.07
2018-04-13T22:43:32.404Z,38.20
2018-04-13T22:45:59.009Z,36.70
2018-04-13T22:48:25.758Z,37.17
2018-04-13T22:50:52.233Z,34.50
2018-04-13T22:53:18.705Z,37.87
2018-04-13T22:55:45.844Z,37.90
2018-04-13T22:58:12.449Z,34.77
2018-04-13T23:00:38.962Z,38.03
2018-04-13T23:03:05.682Z,35.20
2018-04-13T23:05:32.232Z,34.90
2018-04-13T23:08:00.417Z,34.87
2018-04-13T23:10:27.345Z,34.40
2018-04-13T23:12:53.983Z,36.30
2018-04-13T23:15:20.581Z,34.10
2018-04-13T23:17:47.979Z,34.93
2018-04-13T23:20:14.538Z,33.50
2018-04-13T23:22:43.772Z,34.40
2018-04-13T23:25:10.900Z,32.60
2018-04-13T23:27:38.140Z,32.20
2018-04-13T23:30:05.298Z,33.27
2018-04-13T23:32:31.803Z,33.13
2018-04-13T23:34:58.191Z,33.13
2018-04-13T23:37:25.382Z,33.53
2018-04-13T23:39:51.805Z,32.80
2018-04-13T23:42:18.335Z,36.10
2018-04-13T23:44:44.710Z,36.63
2018-04-13T23:47:11.246Z,37.47
2018-04-13T23:49:37.869Z,36.00
2018-04-13T23:52:04.475Z,36.53
2018-04-13T23:54:30.897Z,37.43
2018-04-13T23:56:57.299Z,37.47
2018-04-13T23:59:24.080Z,38.80
